x

Muskegon, Mi (mkgm4) Weather Station

6:45pm - Fri 24th Oct 2014 All times are CDT. -5 hours from GMT.

  • Wind
    8mph, 10mph gusts
  • Air Temp 51°f
  • Sea Pressure 1015.8mb
  • Muskegon, Mi
  • Muskegon, Mi

More Historic Weather Station data

Upgrade to MSW Pro to gain access to the past 30 days of data for over 8000 Wavebouys and Weather Stations around the globe.

Join Pro

Comparision Forecast

View Surf forecast
   
Fri 10/24 6:45pm 8 10 mph 1015.8mb 51f
6:30pm 7 9 mph 1015.7mb 52f
6:15pm 6
mph
1015.8mb 52f
6:00pm 5 7 mph 1015.8mb 51f
5:45pm 9 11 mph 1015.8mb 52f
5:30pm 13 15 mph 1016mb 52f
5:15pm 13 14 mph 1015.9mb 53f
5:00pm 11 13 mph 1015.7mb 53f
4:45pm 10 14 mph 1015.7mb 53f
4:30pm 10 11 mph 1015.6mb 53f
4:15pm 11 13 mph 1015.4mb 53f
4:00pm 13 14 mph 1015.7mb 53f
3:45pm 8 10 mph 1015.8mb 53f
3:30pm 9 11 mph 1015.9mb 53f
3:15pm 11 14 mph 1015.9mb 53f
3:00pm 13 15 mph 1015.9mb 53f
2:45pm 9 10 mph 1015.9mb 53f
2:30pm 9 10 mph 1016.2mb 53f
2:15pm 9 10 mph 1016.4mb 53f
2:00pm 8 10 mph 1016.5mb 53f
1:45pm 8 9 mph 1016.9mb 53f
1:30pm 9 11 mph 1017mb 53f
1:15pm 10 13 mph 1017.1mb 53f
1:00pm 10 11 mph 1017mb 53f
12:45pm 11 13 mph 1017.1mb 53f
12:30pm 8 9 mph 1017.2mb 53f
12:15pm 9 10 mph 1017.3mb 53f
12:00pm 9 11 mph 1017.5mb 53f
11:45am 9 11 mph 1017.9mb 53f
11:30am 9 10 mph 1018mb 53f
11:15am 8 9 mph 1017.9mb 53f
11:00am 8 9 mph 1018mb 53f
10:45am 7 8 mph 1018mb 53f
10:30am 9
mph
1018.2mb 53f
10:15am 8 9 mph 1018.1mb 53f
10:00am 8
mph
1018mb 53f
9:45am 9
mph
1018mb 53f
9:30am 8 9 mph 1018.1mb 53f
9:15am 9 10 mph 1018.2mb 53f
9:00am 9 11 mph 1018.2mb 53f
8:45am 9 10 mph 1018mb 53f
8:30am 11
mph
1018.2mb 53f
8:15am 11 13 mph 1018.3mb 53f
8:00am 9 11 mph 1018.1mb 53f
7:45am 8 9 mph 1017.9mb 53f
7:30am 11
mph
1017.7mb 53f
7:15am 11 13 mph 1017.7mb 54f
7:00am 10
mph
1017.6mb 54f
6:45am 11 13 mph 1017.6mb 54f
6:30am 11 13 mph 1017.8mb 54f
6:15am 11 13 mph 1017.5mb 54f
6:00am 10 11 mph 1017.4mb 54f
5:45am 13 15 mph 1017.5mb 55f
5:30am 13 14 mph 1017.5mb 55f
5:15am 14 15 mph 1017.7mb 55f
5:00am 15 16 mph 1017.8mb 55f
4:45am 15 16 mph 1018mb 55f
4:30am 11 14 mph 1018mb 55f
4:15am 14 15 mph 1017.9mb 55f
4:00am 13 15 mph 1017.8mb 55f
3:45am 15 17 mph 1017.7mb 55f
3:30am 14 16 mph 1017.7mb 55f
3:15am 15 16 mph 1017.5mb 55f
3:00am 14 16 mph 1017.5mb 55f
2:45am 15 16 mph 1017.5mb 55f
2:30am 13 15 mph 1017.7mb 55f
2:15am 15 16 mph 1017.7mb 55f
2:00am 14 15 mph 1017.8mb 55f
1:45am 14 16 mph 1017.9mb 55f
1:30am 10 13 mph 1018mb 55f
1:15am 11 13 mph 1018.1mb 55f
1:00am 10 11 mph 1018.2mb 54f
12:45am 9 10 mph 1018.2mb 54f
12:30am 9 11 mph 1018.3mb 54f
12:15am 9
mph
1018.3mb 54f
12:00am 9 10 mph 1018.4mb 54f
Thu 10/23 11:45pm 10 11 mph 1018.5mb 54f
11:30pm 11 13 mph 1018.7mb 53f
11:15pm 16 17 mph 1018.8mb 54f
11:00pm 8 9 mph 1019mb 52f
10:45pm 8 9 mph 1019mb 52f
10:30pm 8 9 mph 1019.1mb 52f
10:15pm 8 9 mph 1019.2mb 52f
10:00pm 9 10 mph 1019.3mb 52f
9:45pm 10 11 mph 1019.4mb 52f
9:30pm 7 8 mph 1019.6mb 52f
9:15pm 3 7 mph 1019.8mb 51f
9:00pm 6 8 mph 1019.7mb 52f
8:45pm 6 8 mph 1019.7mb 51f
8:30pm 3 5 mph 1019.7mb 51f
8:15pm 3 6 mph 1019.7mb 52f
8:00pm 7 9 mph 1019.5mb 53f
7:45pm 5 8 mph 1019.6mb 53f
7:30pm 9 11 mph 1019.4mb 53f
7:15pm 11 14 mph 1019.6mb 53f
7:00pm 11 13 mph 1019.7mb 53f
6:45pm 10 11 mph 1019.8mb 53f
6:30pm 10 11 mph 1019.6mb 53f
6:15pm 13 14 mph 1019.6mb 53f
6:00pm 15 16 mph 1019.8mb 53f
5:45pm 16 18 mph 1020.1mb 53f
5:30pm 16 18 mph 1020mb 53f
5:15pm 15 17 mph 1019.9mb 53f
5:00pm 17 18 mph 1019.7mb 52f
4:45pm 14 18 mph 1019.9mb 53f
4:30pm 14 16 mph 1020.2mb 53f
4:15pm 13 16 mph 1020.1mb 53f
4:00pm 13 15 mph 1020.5mb 53f
3:45pm 13 15 mph 1020.5mb 53f
3:30pm 13 16 mph 1020.7mb 53f
3:15pm 13 14 mph 1020.7mb 54f
3:00pm 13 15 mph 1020.8mb 54f
2:45pm 15 16 mph 1021mb 55f
2:30pm 14 15 mph 1021mb 54f
2:15pm 13 14 mph 1021mb 55f
2:00pm 11 13 mph 1021.4mb 55f
1:45pm 14 16 mph 1022.3mb 53f
1:30pm 14 17 mph 1022.4mb 53f
1:15pm 13 15 mph 1022.4mb 54f
1:00pm 14 16 mph 1022.4mb 53f
12:45pm 15 17 mph 1022.6mb 53f
12:30pm 15 17 mph 1022.8mb 54f
12:15pm 14 17 mph 1022.9mb 54f
12:00pm 13 16 mph 1023.2mb 52f
11:45am 13 14 mph 1023.3mb 53f
11:30am 14 17 mph 1023.6mb 51f
11:15am 14 16 mph 1023.7mb 51f
11:00am 11 14 mph 1023.9mb 50f
10:45am 10 13 mph 1024mb 49f
10:30am 8 10 mph 1024.2mb 48f
10:15am 5 7 mph 1024.3mb 46f
10:00am 6 8 mph 1024.5mb 44f
9:45am 6 7 mph 1024.6mb 43f
9:30am 6 7 mph 1024.6mb 42f
9:15am 6 7 mph 1024.8mb 41f
9:00am 6 7 mph 1025mb 40f
8:45am 6 7 mph 1025mb 39f
8:30am 7 9 mph 1025.1mb 38f
8:15am 6 8 mph 1025.2mb 38f
8:00am 7 8 mph 1024.9mb 38f
7:45am 6 7 mph 1024.9mb 38f
7:30am 6 7 mph 1024.9mb 38f
7:15am 6 7 mph 1025mb 38f
7:00am 6 7 mph 1025mb 38f
6:45am 6 7 mph 1025.2mb 38f
6:30am 6 7 mph 1025.3mb 38f
6:15am 6 7 mph 1025.4mb 38f
6:00am 6 7 mph 1025.2mb 38f
5:45am 5 6 mph 1025.2mb 38f
5:30am 6 8 mph 1025.1mb 38f
5:15am 5 8 mph 1025.2mb 38f
5:00am 6 9 mph 1025.2mb 38f
4:45am 6 8 mph 1025.4mb 38f
4:30am 5 7 mph 1025.5mb 38f
4:15am 5 9 mph 1025.7mb 37f
4:00am 5 8 mph 1025.7mb 37f
3:45am 5 7 mph 1025.8mb 37f
3:30am 5 7 mph 1025.9mb 38f
3:15am 6 8 mph 1025.8mb 38f
3:00am 7 9 mph 1026mb 39f
2:45am 7 9 mph 1026mb 39f
2:30am 8 11 mph 1026.2mb 39f
2:15am 8 10 mph 1026.3mb 39f
2:00am 7 10 mph 1026.4mb 39f
1:45am 7 9 mph 1026.3mb 40f
1:30am 7 10 mph 1026.3mb 39f
1:15am 6 9 mph 1026.4mb 39f
1:00am 7 9 mph 1026.6mb 40f
12:45am 7 9 mph 1026.8mb 40f
12:30am 8 9 mph 1026.9mb 40f
12:15am 8 10 mph 1027mb 40f
12:00am 7 9 mph 1027.1mb 40f
Wed 10/22 11:45pm 7 9 mph 1027mb 40f
11:30pm 8 10 mph 1026.9mb 40f
11:15pm 7 11 mph 1026.9mb 41f
11:00pm 6 9 mph 1026.9mb 41f
10:45pm 8 11 mph 1026.8mb 42f
10:30pm 9 13 mph 1026.7mb 43f
10:15pm 8 9 mph 1026.8mb 43f
10:00pm 8 10 mph 1027mb 42f
9:45pm 8 10 mph 1026.9mb 42f
9:30pm 9 10 mph 1026.7mb 42f
9:15pm 7 8 mph 1026.8mb 41f
9:00pm 8 9 mph 1026.9mb 42f
8:45pm 8
mph
1026.9mb 42f
8:30pm 7 8 mph 1026.9mb 42f
8:15pm 6
mph
1027mb 42f
8:00pm 5 6 mph 1027mb 42f
7:45pm 5 6 mph 1027.2mb 41f
7:30pm 3 5 mph 1027.1mb 42f
7:15pm 5 6 mph 1027.1mb 42f
7:00pm 5 6 mph 1027mb 42f
6:45pm 5 6 mph 1027.1mb 43f
6:30pm 6
mph
1027mb 43f
6:15pm 6
mph
1027mb 45f
6:00pm 5 6 mph 1027mb 46f
5:45pm 5 7 mph 1027mb 48f
5:30pm 5 8 mph 1026.9mb 49f
5:15pm 7 8 mph 1026.9mb 49f
5:00pm 8 9 mph 1027.1mb 49f
4:45pm 8 10 mph 1027.3mb 50f
4:30pm 8 10 mph 1027.5mb 50f
4:15pm 8 10 mph 1027.7mb 50f
4:00pm 8 10 mph 1027.7mb 50f
3:45pm 8 9 mph 1027.8mb 49f
3:30pm 9 10 mph 1027.9mb 49f
3:15pm 8 9 mph 1027.9mb 49f
3:00pm 8 10 mph 1027.9mb 49f
2:45pm 8 10 mph 1028mb 48f
2:30pm 7 8 mph 1028.2mb 48f
2:15pm 7 9 mph 1028.4mb 48f
2:00pm 6 8 mph 1028.5mb 48f
1:45pm 6 7 mph 1028.7mb 48f
1:30pm 7 8 mph 1028.9mb 48f
1:15pm 2 5 mph 1029mb 48f
1:00pm 7 8 mph 1029.2mb 48f
12:45pm 3 5 mph 1029.4mb 47f
12:30pm 5 7 mph 1029.3mb 51f
12:15pm 6 9 mph 1029.4mb 51f
12:00pm 5 9 mph 1029.5mb 50f
11:45am 7 8 mph 1029.8mb 50f
11:30am 5 7 mph 1030mb 49f
11:15am 5 6 mph 1030.1mb 48f
11:00am 5 9 mph 1030.2mb 46f
10:45am 3 7 mph 1030.3mb 46f
10:30am 5 7 mph 1030.3mb 45f
10:15am 6 9 mph 1030.4mb 43f
10:00am 7 10 mph 1030.4mb 42f
9:45am 7 10 mph 1030.3mb 41f
9:30am 8 10 mph 1030.3mb 39f
9:15am 7 9 mph 1030.4mb 39f
9:00am 7 9 mph 1030.3mb 38f
Tue 10/21 9:45am 13 17 mph 1021.1mb 47f
9:30am 13 17 mph 1021.1mb 47f
9:15am 13 17 mph 1020.8mb 47f
9:00am 11 16 mph 1020.5mb 48f
8:45am 9 14 mph 1020.4mb 48f
8:30am 13 16 mph 1020.2mb 47f
8:15am 9 15 mph 1020mb 47f
8:00am 10 15 mph 1019.8mb 47f
7:45am 9 14 mph 1019.5mb 47f
7:30am 9 14 mph 1019.3mb 47f
7:15am 9 11 mph 1018.9mb 47f
7:00am 8 11 mph 1018.8mb 47f
6:45am 9 14 mph 1018.7mb 46f
6:30am 9 13 mph 1018.5mb 46f
6:15am 10 16 mph 1018.4mb 46f
6:00am 13 17 mph 1018.1mb 46f
5:45am 13 17 mph 1018mb 46f
5:30am 10 13 mph 1017.9mb 46f
5:15am 10 13 mph 1017.7mb 46f
5:00am 11 14 mph 1017.5mb 46f
4:45am 10 14 mph 1017.3mb 46f
4:30am 9 13 mph 1017.2mb 46f
4:15am 10 13 mph 1017.1mb 46f
4:00am 13 15 mph 1016.8mb 46f
3:45am 14 18 mph 1016.6mb 46f
3:30am 13 17 mph 1016.6mb 46f
3:15am 11 14 mph 1016.5mb 46f
3:00am 10 14 mph 1016.5mb 46f
2:45am 10 15 mph 1016.4mb 46f
2:30am 9 11 mph 1016.6mb 46f
2:15am 8 11 mph 1016.6mb 46f
2:00am 8 11 mph 1016.4mb 46f